Time;durP1;ratioP1;P1;durP2;ratioP2;P2;SDS_P1;SDS_P2;PMS_P1;PMS_P2;Temp;Humidity;BMP_temperature;BMP_pressure;BME280_temperature;BME280_humidity;BME280_pressure;Samples;Min_cycle;Max_cycle;Signal;HPM_P1;HPM_P2
2023/02/14 00:00:29;;;;;;;9.93;6.95;;;;;;;8.97;60.27;101723.81;5011231;28;20073;-81
2023/02/14 00:02:55;;;;;;;9.73;7.10;;;;;;;8.96;60.50;101719.47;5011089;28;20489;-80
2023/02/14 00:05:22;;;;;;;10.93;7.55;;;;;;;8.96;60.13;101721.22;5009787;28;20088;-81
2023/02/14 00:07:49;;;;;;;12.57;7.60;;;;;;;8.96;60.61;101719.47;5010557;28;20046;-81
2023/02/14 00:10:16;;;;;;;11.25;7.30;;;;;;;8.97;60.12;101722.97;5011261;28;20049;-81
2023/02/14 00:12:42;;;;;;;13.13;8.80;;;;;;;8.94;60.01;101713.38;4992929;28;20600;-80
2023/02/14 00:15:21;;;;;;;12.45;7.80;;;;;;;8.93;60.02;101716.91;5010670;28;20058;-81
2023/02/14 00:17:58;;;;;;;13.00;8.25;;;;;;;8.89;60.53;101707.34;5010886;28;20050;-80
2023/02/14 00:20:26;;;;;;;12.05;8.38;;;;;;;8.87;60.43;101701.25;5011184;28;20460;-83
2023/02/14 00:22:53;;;;;;;14.30;9.52;;;;;;;8.84;60.74;101702.19;5010969;28;20058;-82
2023/02/14 00:25:19;;;;;;;13.32;9.07;;;;;;;8.82;60.96;101705.75;5010492;28;20529;-80
2023/02/14 00:27:46;;;;;;;14.02;9.25;;;;;;;8.79;60.90;101703.16;5010193;28;20085;-80
2023/02/14 00:30:13;;;;;;;16.35;10.32;;;;;;;8.79;61.25;101705.78;5011038;28;20054;-80
2023/02/14 00:32:41;;;;;;;13.77;9.57;;;;;;;8.78;61.64;101709.31;5009670;28;20046;-81
2023/02/14 00:35:08;;;;;;;16.20;9.55;;;;;;;8.76;61.51;101704.09;4993144;28;20146;-81
2023/02/14 00:37:36;;;;;;;14.85;9.77;;;;;;;8.76;61.80;101703.22;4992866;28;20046;-80
2023/02/14 00:40:05;;;;;;;14.38;9.57;;;;;;;8.76;61.80;101705.84;5010785;28;20085;-81
2023/02/14 00:42:32;;;;;;;16.15;9.65;;;;;;;8.75;61.61;101702.34;5010586;28;20046;-82
2023/02/14 00:44:58;;;;;;;14.20;9.75;;;;;;;8.76;61.54;101709.34;5010507;28;20054;-80
2023/02/14 00:47:25;;;;;;;15.02;10.07;;;;;;;8.77;61.63;101702.31;5010242;28;20054;-80
2023/02/14 00:49:51;;;;;;;13.75;9.18;;;;;;;8.77;61.69;101699.69;5010776;28;20057;-80
2023/02/14 00:52:18;;;;;;;16.30;10.77;;;;;;;8.79;61.93;101704.00;5010881;28;20717;-81
2023/02/14 00:54:44;;;;;;;17.50;10.10;;;;;;;8.81;62.02;101707.50;5010562;28;20046;-83
2023/02/14 00:57:14;;;;;;;14.70;9.07;;;;;;;8.82;62.20;101709.22;5009953;28;20054;-82
2023/02/14 00:59:40;;;;;;;13.48;9.60;;;;;;;8.85;61.55;101708.28;5010690;28;20089;-82
2023/02/14 01:02:07;;;;;;;14.90;9.88;;;;;;;8.85;61.44;101711.78;5010486;28;20046;-81
2023/02/14 01:04:33;;;;;;;14.52;9.40;;;;;;;8.88;61.38;101712.63;5010564;28;20494;-81
2023/02/14 01:07:00;;;;;;;16.83;10.35;;;;;;;8.85;61.37;101714.41;5009581;28;20100;-80
2023/02/14 01:09:26;;;;;;;12.57;8.95;;;;;;;8.86;61.26;101720.56;4992969;28;20053;-80
2023/02/14 01:11:53;;;;;;;12.60;9.07;;;;;;;8.84;61.07;101715.31;5010523;28;20049;-82
2023/02/14 01:14:19;;;;;;;14.93;10.23;;;;;;;8.82;60.65;101718.88;5010566;28;20129;-80
2023/02/14 01:16:46;;;;;;;13.88;9.50;;;;;;;8.79;60.54;101724.16;5009745;28;20056;-80
2023/02/14 01:19:12;;;;;;;16.20;10.57;;;;;;;8.74;60.79;101726.84;5010613;28;20042;-80
2023/02/14 01:21:40;;;;;;;14.52;10.52;;;;;;;8.69;60.85;101726.09;5010429;28;20054;-80
2023/02/14 01:24:07;;;;;;;16.02;10.50;;;;;;;8.64;60.87;101725.31;5011713;28;20050;-80
2023/02/14 01:26:34;;;;;;;17.05;11.25;;;;;;;8.59;61.10;101730.63;5013364;28;20046;-83
2023/02/14 01:29:02;;;;;;;20.45;12.30;;;;;;;8.54;61.43;101724.59;5013772;28;20466;-81
2023/02/14 01:31:31;;;;;;;18.02;11.82;;;;;;;8.47;61.77;101723.78;4996627;28;20045;-81
2023/02/14 01:33:59;;;;;;;18.50;12.35;;;;;;;8.43;61.90;101728.22;5013831;28;20046;-81
2023/02/14 01:36:30;;;;;;;19.33;12.75;;;;;;;8.39;62.76;101726.53;5013354;28;20437;-81
2023/02/14 01:39:01;;;;;;;20.67;13.13;;;;;;;8.37;62.98;101716.97;5013199;28;20049;-82
2023/02/14 01:41:30;;;;;;;20.73;13.23;;;;;;;8.36;62.81;101718.72;5013928;28;20048;-81
2023/02/14 01:44:04;;;;;;;20.70;13.55;;;;;;;8.34;64.09;101717.88;4996157;28;20049;-81
2023/02/14 01:46:35;;;;;;;19.88;12.55;;;;;;;8.33;63.86;101711.75;5013322;28;20057;-82
2023/02/14 01:49:14;;;;;;;18.55;12.50;;;;;;;8.33;64.19;101716.13;4995839;28;20565;-80
2023/02/14 01:51:47;;;;;;;18.75;12.95;;;;;;;8.35;63.77;101712.59;5013707;28;20064;-81
2023/02/14 01:54:13;;;;;;;16.85;12.20;;;;;;;8.38;63.42;101706.44;4996170;28;20058;-82
2023/02/14 01:56:44;;;;;;;17.48;11.45;;;;;;;8.41;63.78;101716.03;5012573;28;20042;-81
2023/02/14 01:59:16;;;;;;;17.00;11.48;;;;;;;8.43;63.61;101707.22;5013419;28;20052;-81
2023/02/14 02:01:44;;;;;;;17.10;11.32;;;;;;;8.47;63.10;101710.66;5013364;28;20077;-80
2023/02/14 02:04:16;;;;;;;17.20;11.50;;;;;;;8.49;63.20;101708.91;5013293;28;20553;-81
2023/02/14 02:06:48;;;;;;;18.38;11.07;;;;;;;8.51;63.64;101714.09;5012835;28;20119;-80
2023/02/14 02:09:32;;;;;;;15.05;10.65;;;;;;;8.50;64.03;101708.00;5013075;28;20053;-81
2023/02/14 02:11:59;;;;;;;17.02;10.45;;;;;;;8.55;62.87;101705.31;5013128;28;20137;-82
2023/02/14 02:14:25;;;;;;;15.25;10.90;;;;;;;8.57;62.94;101703.53;4995601;28;20054;-80
2023/02/14 02:17:16;;;;;;;17.13;10.48;;;;;;;8.57;63.73;101704.38;5012649;28;20501;-80
2023/02/14 02:20:05;;;;;;;14.75;10.50;;;;;;;8.58;63.62;101700.00;5012951;28;20672;-81
2023/02/14 02:22:59;;;;;;;14.10;9.63;;;;;;;8.59;63.59;101702.63;5012859;28;20046;-80
2023/02/14 02:25:47;;;;;;;15.27;10.20;;;;;;;8.59;63.40;101699.09;5012611;28;20501;-80
2023/02/14 02:28:47;;;;;;;15.63;10.25;;;;;;;8.55;63.62;101693.06;5012518;28;20080;-81
2023/02/14 02:31:41;;;;;;;12.82;9.85;;;;;;;8.54;63.51;101693.97;5013053;28;20175;-80
2023/02/14 02:34:32;;;;;;;15.43;10.13;;;;;;;8.51;63.64;101693.09;5012829;28;20414;-81
2023/02/14 02:37:21;;;;;;;16.38;9.85;;;;;;;8.48;63.27;101689.66;5011407;28;20046;-81
2023/02/14 02:40:23;;;;;;;13.48;9.50;;;;;;;8.47;63.49;101687.91;5012838;28;20041;-80
2023/02/14 02:43:21;;;;;;;14.18;8.88;;;;;;;8.47;63.38;101682.66;5002136;28;20482;-80
2023/02/14 02:58:54;;;;;;;17.23;8.70;;;;;;;8.48;63.27;101678.25;5012041;28;20133;-81
2023/02/14 03:01:27;;;;;;;11.37;7.93;;;;;;;8.53;62.36;101675.59;5009402;28;20140;-82
2023/02/14 03:06:44;;;;;;;11.15;8.52;;;;;;;8.52;62.24;101663.34;5010825;28;20653;-80
2023/02/14 03:09:26;;;;;;;11.10;8.18;;;;;;;8.47;63.04;101666.03;5012064;28;20394;-81
2023/02/14 03:12:09;;;;;;;11.70;8.77;;;;;;;8.48;63.06;101660.78;5012211;28;20200;-81
2023/02/14 03:14:47;;;;;;;10.52;8.38;;;;;;;8.50;62.63;101662.50;5088559;23;20054;-78
2023/02/14 03:17:29;;;;;;;10.65;8.35;;;;;;;8.45;62.77;101655.56;4991949;28;20069;-77
2023/02/14 03:20:16;;;;;;;12.32;8.93;;;;;;;8.46;62.67;101659.91;4992131;28;20590;-77
2023/02/14 03:22:49;;;;;;;11.70;8.13;;;;;;;8.45;62.32;101652.94;4992387;28;20487;-77
2023/02/14 03:25:24;;;;;;;13.07;8.30;;;;;;;8.47;62.27;101655.53;4991776;28;20145;-78
2023/02/14 03:28:03;;;;;;;10.93;7.97;;;;;;;8.43;62.85;101651.25;4991942;28;20085;-77
2023/02/14 03:30:40;;;;;;;12.05;7.85;;;;;;;8.42;62.49;101650.41;4990697;28;20054;-77
2023/02/14 03:33:35;;;;;;;10.80;8.00;;;;;;;8.40;62.60;101646.91;4992285;28;20065;-78
2023/02/14 03:36:11;;;;;;;10.50;7.43;;;;;;;8.41;62.11;101643.38;4988668;28;20046;-77
2023/02/14 03:39:04;;;;;;;13.23;8.25;;;;;;;8.35;62.47;101643.50;4991443;28;20046;-77
2023/02/14 03:41:39;;;;;;;10.15;7.57;;;;;;;8.36;62.58;101637.38;4991982;28;20061;-78
2023/02/14 03:44:10;;;;;;;13.63;8.02;;;;;;;8.35;62.37;101635.63;4991888;28;20050;-77
2023/02/14 03:46:44;;;;;;;10.48;7.43;;;;;;;8.34;62.29;101640.00;4990916;28;20046;-79
2023/02/14 03:49:16;;;;;;;10.93;8.30;;;;;;;8.34;62.21;101639.16;4991285;28;20057;-79
2023/02/14 03:51:47;;;;;;;10.32;8.18;;;;;;;8.32;62.32;101639.19;4991936;28;20054;-79
2023/02/14 03:54:17;;;;;;;14.15;8.73;;;;;;;8.32;62.27;101635.69;4990425;28;20089;-79
2023/02/14 03:56:48;;;;;;;10.80;7.78;;;;;;;8.28;62.05;101631.38;4989349;28;20517;-79
2023/02/14 03:59:19;;;;;;;12.20;8.57;;;;;;;8.26;61.61;101630.56;4989913;28;20046;-79
2023/02/14 04:02:28;;;;;;;10.93;7.60;;;;;;;8.18;62.37;101631.53;4991633;28;20062;-80
2023/02/14 04:04:58;;;;;;;10.85;7.38;;;;;;;8.18;61.94;101634.16;4988245;28;20418;-79
2023/02/14 04:07:25;;;;;;;10.85;7.25;;;;;;;8.16;62.02;101625.47;4989717;28;20450;-80
2023/02/14 04:09:51;;;;;;;9.43;7.32;;;;;;;8.15;62.26;101628.13;4991594;28;20097;-80
2023/02/14 04:12:19;;;;;;;12.02;7.60;;;;;;;8.13;61.98;101625.50;4990192;28;20046;-79
2023/02/14 04:15:03;;;;;;;12.35;8.63;;;;;;;8.13;62.09;101628.13;4991301;28;20076;-79
2023/02/14 04:20:15;;;;;;;10.52;7.28;;;;;;;8.11;61.71;101624.66;4991541;28;20092;-80
2023/02/14 04:22:41;;;;;;;10.95;7.70;;;;;;;8.10;61.81;101622.09;4989936;28;20078;-79
2023/02/14 04:25:08;;;;;;;11.13;7.82;;;;;;;8.06;61.80;101623.88;4989494;28;20050;-80
2023/02/14 04:27:35;;;;;;;10.57;7.95;;;;;;;8.02;62.07;101623.06;4990753;28;20054;-79
2023/02/14 04:30:01;;;;;;;11.07;7.47;;;;;;;8.01;62.09;101630.94;4990951;28;20054;-79
2023/02/14 04:32:28;;;;;;;11.10;7.38;;;;;;;7.98;62.64;101631.00;4991328;28;20050;-79
2023/02/14 04:34:55;;;;;;;10.30;7.35;;;;;;;7.94;62.55;101625.81;4990735;28;20402;-79
2023/02/14 04:37:21;;;;;;;12.25;7.35;;;;;;;7.93;62.72;101625.84;4990759;28;20057;-79
2023/02/14 04:39:48;;;;;;;9.73;7.57;;;;;;;7.92;62.86;101619.72;4991034;28;20054;-79
2023/02/14 04:42:14;;;;;;;10.15;6.90;;;;;;;7.92;62.61;101627.56;4991036;28;20054;-79
2023/02/14 04:44:41;;;;;;;11.35;7.70;;;;;;;7.90;62.55;101628.50;4990808;28;20046;-80
2023/02/14 04:47:07;;;;;;;11.25;7.50;;;;;;;7.89;62.93;101625.00;4990610;28;20058;-80
2023/02/14 04:49:34;;;;;;;9.82;6.80;;;;;;;7.89;62.81;101619.75;4990904;28;20137;-80
2023/02/14 04:52:01;;;;;;;13.10;8.15;;;;;;;7.88;62.85;101619.78;4991240;28;20054;-80
2023/02/14 04:54:28;;;;;;;9.63;6.78;;;;;;;7.87;62.67;101607.56;4991033;28;20150;-79
2023/02/14 04:56:55;;;;;;;10.02;6.95;;;;;;;7.85;62.78;101610.19;4990190;28;20049;-79
2023/02/14 04:59:22;;;;;;;11.77;7.40;;;;;;;7.84;62.34;101611.09;4992764;28;20050;-80
2023/02/14 05:01:50;;;;;;;9.65;7.47;;;;;;;7.82;62.54;101610.28;4994924;28;20056;-80
2023/02/14 05:04:17;;;;;;;11.98;6.63;;;;;;;7.80;62.72;101612.03;4994900;28;20059;-80
2023/02/14 05:06:44;;;;;;;9.05;6.35;;;;;;;7.76;62.44;101603.34;4992853;28;20478;-79
2023/02/14 05:09:10;;;;;;;9.55;6.68;;;;;;;7.75;62.84;101598.13;4994568;28;20380;-80
2023/02/14 05:11:37;;;;;;;8.93;6.88;;;;;;;7.75;62.59;101600.75;4994606;28;20062;-79
2023/02/14 05:14:03;;;;;;;9.20;7.10;;;;;;;7.75;62.66;101603.38;4994541;28;20073;-79
2023/02/14 05:16:30;;;;;;;10.52;6.90;;;;;;;7.74;62.47;101601.66;4994367;28;20046;-79
2023/02/14 05:18:56;;;;;;;10.43;6.90;;;;;;;7.74;62.23;101607.75;4994234;28;20058;-80
2023/02/14 05:21:23;;;;;;;9.98;6.70;;;;;;;7.73;62.37;101597.31;4994572;28;20054;-79
2023/02/14 05:23:49;;;;;;;9.77;7.13;;;;;;;7.70;62.41;101600.81;4994433;28;20050;-80
2023/02/14 05:26:16;;;;;;;9.57;6.95;;;;;;;7.69;62.32;101604.31;4993946;28;20530;-80
2023/02/14 05:28:42;;;;;;;10.13;7.13;;;;;;;7.67;62.48;101603.50;4993795;28;20411;-79
2023/02/14 05:31:09;;;;;;;9.60;7.13;;;;;;;7.66;62.24;101605.25;4994386;28;20398;-79
2023/02/14 05:33:36;;;;;;;10.13;6.72;;;;;;;7.64;62.07;101601.78;4994227;28;20050;-79
2023/02/14 05:36:03;;;;;;;8.57;6.55;;;;;;;7.64;62.55;101606.16;4993811;28;20097;-80
2023/02/14 05:38:30;;;;;;;9.55;6.47;;;;;;;7.63;62.32;101602.66;4993686;28;20065;-79
2023/02/14 05:40:56;;;;;;;10.38;6.93;;;;;;;7.65;62.43;101611.38;4992492;28;20065;-80
2023/02/14 05:43:23;;;;;;;11.18;6.38;;;;;;;7.64;62.34;101614.03;4994205;28;20137;-80
2023/02/14 05:45:50;;;;;;;8.93;6.30;;;;;;;7.66;62.21;101617.47;4993821;28;20042;-79
2023/02/14 05:48:16;;;;;;;8.40;6.28;;;;;;;7.64;62.16;101614.91;4993474;28;20516;-80
2023/02/14 05:50:44;;;;;;;9.30;6.25;;;;;;;7.65;62.27;101619.25;4993932;28;20054;-79
2023/02/14 05:53:12;;;;;;;9.10;6.75;;;;;;;7.64;62.19;101614.03;4993888;28;20085;-79
2023/02/14 05:55:38;;;;;;;10.35;6.40;;;;;;;7.64;62.08;101614.91;4993620;28;20138;-80
2023/02/14 05:58:06;;;;;;;11.90;6.85;;;;;;;7.64;62.25;101614.91;4991923;28;20050;-80
2023/02/14 06:00:33;;;;;;;8.30;6.38;;;;;;;7.63;62.04;101618.38;4992456;28;20100;-80
2023/02/14 06:03:00;;;;;;;8.25;6.20;;;;;;;7.62;62.09;101619.28;4993654;28;20570;-80
2023/02/14 06:05:26;;;;;;;7.47;5.88;;;;;;;7.61;62.12;101622.81;4993265;28;20097;-79
2023/02/14 06:07:53;;;;;;;7.00;5.45;;;;;;;7.60;62.31;101626.31;4993123;28;20133;-80
2023/02/14 06:10:21;;;;;;;8.82;5.85;;;;;;;7.58;62.08;101622.84;4992697;28;20054;-79
2023/02/14 06:12:49;;;;;;;10.70;6.50;;;;;;;7.57;62.06;101621.13;4993534;28;20108;-79
2023/02/14 06:15:15;;;;;;;7.70;5.85;;;;;;;7.56;61.93;101632.50;4992968;28;20145;-80
2023/02/14 06:17:42;;;;;;;8.20;5.57;;;;;;;7.55;62.28;101628.13;4992980;28;20125;-80
2023/02/14 06:20:09;;;;;;;8.45;5.20;;;;;;;7.55;62.42;101628.13;4993240;28;20046;-80
2023/02/14 06:22:37;;;;;;;7.50;5.25;;;;;;;7.55;62.51;101630.72;4993239;28;20054;-78
2023/02/14 06:25:05;;;;;;;7.55;4.82;;;;;;;7.55;62.03;101629.00;4992970;28;20184;-78
2023/02/14 06:27:32;;;;;;;9.23;5.15;;;;;;;7.56;62.16;101632.50;4993004;28;20054;-78
2023/02/14 06:29:59;;;;;;;6.60;4.95;;;;;;;7.56;62.36;101629.88;4993018;28;20467;-78
2023/02/14 06:32:25;;;;;;;7.47;5.22;;;;;;;7.56;62.14;101630.72;4993147;28;20133;-79
2023/02/14 06:34:52;;;;;;;7.95;5.70;;;;;;;7.58;62.46;101627.22;4991416;28;20495;-77
2023/02/14 06:37:19;;;;;;;7.90;4.88;;;;;;;7.58;62.13;101630.69;4992988;28;20054;-78
2023/02/14 06:39:45;;;;;;;6.70;4.60;;;;;;;7.58;62.07;101633.31;4993098;28;20046;-78
2023/02/14 06:42:12;;;;;;;6.85;5.00;;;;;;;7.58;61.82;101625.47;4992874;28;20054;-79
2023/02/14 06:44:38;;;;;;;7.15;4.90;;;;;;;7.59;62.08;101623.72;4992855;28;20113;-78
2023/02/14 06:47:05;;;;;;;6.20;4.40;;;;;;;7.58;62.03;101625.47;4992044;28;20403;-79
2023/02/14 06:49:31;;;;;;;6.07;4.30;;;;;;;7.58;62.15;101614.13;4992505;28;20521;-79
2023/02/14 06:51:58;;;;;;;8.05;4.82;;;;;;;7.56;62.00;101615.00;4992895;28;20076;-78
2023/02/14 06:54:24;;;;;;;7.75;4.35;;;;;;;7.55;61.97;101623.75;4992816;28;20509;-79
2023/02/14 06:56:51;;;;;;;6.65;4.68;;;;;;;7.53;61.74;101622.91;4990907;28;20046;-78
2023/02/14 06:59:17;;;;;;;6.60;5.07;;;;;;;7.53;61.62;101627.28;4992651;28;20065;-79
2023/02/14 07:01:44;;;;;;;6.45;4.43;;;;;;;7.51;61.68;101629.91;4992602;28;20042;-79
2023/02/14 07:04:10;;;;;;;6.20;4.78;;;;;;;7.49;61.71;101631.72;4992410;28;20093;-79
2023/02/14 07:06:37;;;;;;;6.82;4.55;;;;;;;7.47;61.85;101633.47;4990426;28;20082;-79
2023/02/14 07:09:04;;;;;;;5.82;4.22;;;;;;;7.46;61.77;101636.09;4992611;28;20138;-79
2023/02/14 07:11:31;;;;;;;5.57;4.00;;;;;;;7.43;62.05;101637.91;4991297;28;20518;-79
2023/02/14 07:13:57;;;;;;;5.72;4.45;;;;;;;7.41;61.67;101639.66;4992395;28;20053;-79
2023/02/14 07:16:24;;;;;;;7.57;4.90;;;;;;;7.39;61.81;101638.81;4991980;28;20058;-80
2023/02/14 07:18:51;;;;;;;6.85;4.38;;;;;;;7.38;61.69;101642.34;4991914;28;20050;-79
2023/02/14 07:21:17;;;;;;;7.88;4.13;;;;;;;7.38;62.13;101650.19;4992301;28;20058;-79
2023/02/14 07:23:48;;;;;;;4.70;3.55;;;;;;;7.38;61.97;101644.06;4992340;28;20055;-79
2023/02/14 07:26:16;;;;;;;5.30;3.90;;;;;;;7.38;62.01;101647.56;4991793;28;20141;-79
2023/02/14 07:28:44;;;;;;;8.73;4.68;;;;;;;7.39;62.46;101646.69;4991742;28;20051;-79
2023/02/14 07:31:11;;;;;;;4.80;3.92;;;;;;;7.42;62.07;101649.28;4991928;28;20085;-79
2023/02/14 07:33:38;;;;;;;5.32;3.95;;;;;;;7.45;62.24;101642.25;4992127;28;20068;-79
2023/02/14 07:36:07;;;;;;;7.55;4.15;;;;;;;7.46;62.17;101643.97;4991436;28;20056;-79
2023/02/14 07:38:34;;;;;;;6.63;4.32;;;;;;;7.48;62.05;101629.09;4991684;28;20053;-79
2023/02/14 07:41:01;;;;;;;4.93;4.13;;;;;;;7.51;61.81;101636.94;4991808;28;20058;-79
2023/02/14 07:43:28;;;;;;;5.63;4.07;;;;;;;7.52;62.12;101638.66;4991884;28;20499;-79
2023/02/14 07:45:54;;;;;;;6.32;3.95;;;;;;;7.54;62.20;101631.63;4991317;28;20565;-79
2023/02/14 07:48:21;;;;;;;5.63;4.13;;;;;;;7.56;62.41;101635.97;4991414;28;20136;-79
2023/02/14 07:50:47;;;;;;;5.88;3.90;;;;;;;7.60;62.42;101633.31;4991903;28;20569;-79
2023/02/14 07:53:14;;;;;;;5.95;4.35;;;;;;;7.61;62.33;101633.28;4991778;28;20403;-79
2023/02/14 07:55:40;;;;;;;5.85;4.32;;;;;;;7.64;62.40;101633.25;4991241;28;20058;-79
2023/02/14 07:58:07;;;;;;;10.90;4.97;;;;;;;7.66;62.09;101638.44;4991262;28;20848;-79
2023/02/14 08:00:33;;;;;;;6.18;3.92;;;;;;;7.69;62.49;101635.78;4991432;28;20053;-79
2023/02/14 08:03:00;;;;;;;5.50;4.30;;;;;;;7.72;62.44;101634.88;4991708;28;20120;-79
2023/02/14 08:05:26;;;;;;;9.65;4.10;;;;;;;7.75;62.25;101640.06;4991189;28;20057;-79
2023/02/14 08:07:53;;;;;;;6.22;4.32;;;;;;;7.77;62.32;101630.41;4990657;28;20558;-79
2023/02/14 08:10:20;;;;;;;6.60;4.03;;;;;;;7.82;62.26;101631.25;4991313;28;20115;-79
2023/02/14 08:12:58;;;;;;;5.43;3.33;;;;;;;7.85;62.52;101633.78;4991236;28;20050;-79
2023/02/14 08:18:21;;;;;;;5.63;3.80;;;;;;;7.95;62.39;101635.41;4990937;28;20058;-79
2023/02/14 08:20:48;;;;;;;10.98;3.67;;;;;;;8.02;62.46;101638.78;4991313;28;20086;-79
2023/02/14 08:23:16;;;;;;;5.25;3.50;;;;;;;8.06;62.07;101631.72;4991086;28;20058;-79
2023/02/14 08:25:43;;;;;;;4.32;3.40;;;;;;;8.12;62.30;101636.91;4990898;28;20054;-79
2023/02/14 08:28:12;;;;;;;5.18;3.60;;;;;;;8.18;62.19;101636.78;4989462;28;20054;-79
2023/02/14 08:30:39;;;;;;;4.07;3.42;;;;;;;8.25;62.37;101627.06;4983534;28;20459;-79
2023/02/14 08:33:06;;;;;;;5.28;3.85;;;;;;;8.31;62.22;101634.84;4990703;28;20054;-79
2023/02/14 08:35:33;;;;;;;4.40;3.22;;;;;;;8.38;61.79;101637.34;4990719;28;20051;-79
2023/02/14 08:37:59;;;;;;;8.07;4.15;;;;;;;8.42;62.07;101632.03;4990586;28;20145;-79
2023/02/14 08:40:27;;;;;;;8.68;4.50;;;;;;;8.48;61.78;101636.28;4991562;28;20133;-79
2023/02/14 08:42:53;;;;;;;6.13;4.13;;;;;;;8.52;61.90;101637.09;4989671;28;20738;-79
2023/02/14 08:45:20;;;;;;;6.00;4.43;;;;;;;8.58;61.63;101639.63;4990658;28;20058;-79
2023/02/14 08:47:47;;;;;;;6.00;4.30;;;;;;;8.63;61.62;101644.81;4990708;28;20085;-79
2023/02/14 08:50:16;;;;;;;4.88;3.88;;;;;;;8.66;61.91;101640.38;4990840;28;20057;-79
2023/02/14 08:52:43;;;;;;;5.88;4.03;;;;;;;8.72;61.34;101644.63;4990814;28;20053;-79
2023/02/14 08:55:11;;;;;;;9.27;4.18;;;;;;;8.78;61.16;101643.66;4989239;28;20432;-79
2023/02/14 08:57:38;;;;;;;5.63;4.25;;;;;;;8.80;61.31;101645.38;4982802;28;20509;-79
2023/02/14 09:00:06;;;;;;;4.90;3.67;;;;;;;8.84;60.96;101641.78;4991031;28;20137;-79
2023/02/14 09:02:33;;;;;;;6.00;3.90;;;;;;;8.89;61.13;101641.69;4990900;28;20660;-79
2023/02/14 09:04:59;;;;;;;6.22;4.50;;;;;;;8.92;61.13;101639.00;4990260;28;20060;-79
2023/02/14 09:07:26;;;;;;;6.22;4.55;;;;;;;8.96;61.14;101638.06;4990544;28;20060;-79
2023/02/14 09:09:53;;;;;;;8.35;4.55;;;;;;;9.00;61.32;101633.59;4990929;28;20083;-78
2023/02/14 09:12:19;;;;;;;7.78;4.60;;;;;;;9.05;61.19;101633.50;4990792;28;20082;-79
2023/02/14 09:14:45;;;;;;;7.15;4.80;;;;;;;9.08;61.08;101630.81;4735871;23;20423;-81
2023/02/14 09:17:13;;;;;;;7.53;4.50;;;;;;;9.11;60.92;101631.63;5005339;28;20089;-81
2023/02/14 09:19:40;;;;;;;8.18;4.10;;;;;;;9.18;60.82;101631.47;5001251;28;20053;-80
2023/02/14 09:22:08;;;;;;;6.13;4.45;;;;;;;9.21;60.65;101628.78;5009835;28;20054;-81
2023/02/14 09:24:36;;;;;;;7.20;4.88;;;;;;;9.26;60.68;101632.19;5009837;28;20512;-81
2023/02/14 09:27:04;;;;;;;6.47;4.22;;;;;;;9.32;60.90;101628.56;5009237;28;20397;-81
2023/02/14 09:29:31;;;;;;;8.40;5.00;;;;;;;9.36;60.88;101628.47;5009880;28;20050;-81
2023/02/14 09:31:59;;;;;;;8.88;5.45;;;;;;;9.41;60.57;101628.38;5010008;28;20053;-81
2023/02/14 09:34:27;;;;;;;7.82;4.85;;;;;;;9.46;60.53;101626.50;5007234;28;20050;-81
2023/02/14 09:37:11;;;;;;;6.15;4.55;;;;;;;9.52;60.65;101626.38;5009476;28;20065;-81
2023/02/14 09:39:38;;;;;;;7.57;4.53;;;;;;;9.60;60.59;101627.94;5009926;28;20058;-81
2023/02/14 09:42:16;;;;;;;7.25;4.97;;;;;;;9.65;60.53;101626.09;5009899;28;20061;-81
2023/02/14 09:44:50;;;;;;;6.22;5.25;;;;;;;9.71;60.38;101627.69;5009548;28;20100;-81
2023/02/14 09:48:05;;;;;;;9.43;5.82;;;;;;;9.75;60.27;101627.59;5008726;28;20133;-81
2023/02/14 09:50:41;;;;;;;7.25;5.63;;;;;;;9.86;59.80;101621.22;4995035;28;20049;-81
2023/02/14 09:53:28;;;;;;;12.27;6.43;;;;;;;9.89;59.94;101624.66;5013146;28;20057;-81
2023/02/14 09:56:16;;;;;;;11.05;6.47;;;;;;;9.96;59.91;101625.38;5012912;28;20057;-81
2023/02/14 09:59:01;;;;;;;8.77;6.00;;;;;;;10.04;60.15;101619.91;5012779;28;20046;-81
2023/02/14 10:01:38;;;;;;;11.63;7.88;;;;;;;10.12;60.31;101620.59;5012979;28;20053;-81
2023/02/14 10:04:23;;;;;;;12.65;8.23;;;;;;;10.24;60.61;101621.19;5012985;28;20057;-81
2023/02/14 10:07:18;;;;;;;18.23;9.18;;;;;;;10.28;59.98;101614.94;5004886;28;20293;-80
2023/02/14 10:10:07;;;;;;;17.52;10.82;;;;;;;10.41;60.34;101612.84;5012645;28;20050;-81
2023/02/14 10:12:38;;;;;;;14.95;10.52;;;;;;;10.48;60.16;101613.56;5012900;28;20064;-81
2023/02/14 10:15:21;;;;;;;17.50;10.85;;;;;;;10.54;60.24;101616.91;5012285;28;20053;-81
2023/02/14 10:18:08;;;;;;;14.25;8.93;;;;;;;10.64;59.91;101607.00;5012652;28;20065;-81
2023/02/14 10:20:40;;;;;;;11.68;8.23;;;;;;;10.75;60.19;101611.97;5011427;28;20058;-81
2023/02/14 10:23:55;;;;;;;12.90;8.43;;;;;;;10.84;59.64;101600.28;5012819;28;20057;-81
2023/02/14 10:26:40;;;;;;;11.13;7.93;;;;;;;10.98;58.95;101596.44;4999438;28;20053;-81
2023/02/14 10:29:15;;;;;;;12.55;8.13;;;;;;;11.07;59.02;101599.63;5012448;28;20050;-81
2023/02/14 10:31:54;;;;;;;8.48;6.68;;;;;;;11.21;59.14;101607.13;5012567;28;20058;-81
2023/02/14 10:34:29;;;;;;;12.45;7.63;;;;;;;11.31;58.70;101607.72;5012492;28;20524;-81
2023/02/14 10:37:02;;;;;;;10.77;7.70;;;;;;;11.41;58.56;101602.19;5011663;28;20062;-81
2023/02/14 10:39:47;;;;;;;13.50;7.95;;;;;;;11.50;57.64;101599.25;5012300;28;20057;-81
2023/02/14 10:42:36;;;;;;;11.07;8.48;;;;;;;11.60;58.10;101597.19;5008187;28;20049;-81
2023/02/14 10:45:15;;;;;;;17.05;9.13;;;;;;;11.73;57.88;101595.00;5001445;28;20054;-81
2023/02/14 10:48:04;;;;;;;10.77;7.90;;;;;;;11.88;58.87;101590.16;5012022;28;20073;-81
2023/02/14 10:50:51;;;;;;;11.20;7.65;;;;;;;11.97;58.12;101589.84;5012172;28;20054;-81
2023/02/14 10:53:44;;;;;;;12.75;8.35;;;;;;;12.11;57.80;101586.75;5012110;28;20049;-81
2023/02/14 10:56:23;;;;;;;11.85;7.68;;;;;;;12.22;57.67;101589.03;5011513;28;20049;-82
2023/02/14 10:58:54;;;;;;;12.88;9.18;;;;;;;12.34;57.50;101580.69;5004583;28;20049;-81
2023/02/14 11:01:22;;;;;;;12.27;8.57;;;;;;;12.47;57.98;101581.13;5012035;28;20046;-81
2023/02/14 11:04:02;;;;;;;12.50;8.45;;;;;;;12.58;57.19;101578.09;5010597;28;20060;-81
2023/02/14 11:06:30;;;;;;;10.77;7.63;;;;;;;12.72;57.62;101569.69;5005264;28;20524;-82
2023/02/14 11:08:56;;;;;;;10.55;7.95;;;;;;;12.86;57.82;101570.94;5011671;28;20426;-82
2023/02/14 11:11:34;;;;;;;11.70;8.43;;;;;;;12.97;55.72;101575.84;5011754;28;20094;-82
2023/02/14 11:14:25;;;;;;;10.98;8.40;;;;;;;13.11;55.10;101570.88;5011577;28;20058;-81
2023/02/14 11:16:53;;;;;;;11.73;8.73;;;;;;;13.27;56.65;101565.84;4998569;28;20602;-81
2023/02/14 11:19:29;;;;;;;14.00;8.73;;;;;;;13.41;56.37;101554.72;4988382;28;20050;-81
2023/02/14 11:21:58;;;;;;;11.15;8.00;;;;;;;13.67;58.71;101558.13;5001225;28;20058;-82
2023/02/14 11:24:31;;;;;;;13.15;9.07;;;;;;;14.02;59.07;101556.72;5008842;28;20137;-82
2023/02/14 11:27:02;;;;;;;16.40;9.77;;;;;;;14.50;60.86;101551.97;5004387;28;20060;-81
2023/02/14 11:29:34;;;;;;;12.70;10.00;;;;;;;15.11;56.74;101550.09;5010546;28;20049;-81
2023/02/14 11:32:21;;;;;;;10.93;9.45;;;;;;;15.75;55.47;101549.69;5005507;28;20057;-82
2023/02/14 11:35:01;;;;;;;12.13;8.90;;;;;;;16.38;55.73;101543.94;5011224;28;20279;-82
2023/02/14 11:37:38;;;;;;;11.52;8.77;;;;;;;16.86;52.36;101551.13;5008820;28;20062;-82
2023/02/14 11:40:05;;;;;;;15.40;8.55;;;;;;;17.15;52.36;101538.03;5011431;28;20056;-82
2023/02/14 11:42:44;;;;;;;13.10;9.18;;;;;;;17.31;50.19;101528.22;5011273;28;20054;-82
2023/02/14 11:45:29;;;;;;;12.65;9.25;;;;;;;17.48;50.36;101529.06;5010987;28;20452;-81
2023/02/14 11:48:25;;;;;;;11.48;9.25;;;;;;;17.81;50.40;101527.19;4984442;28;20054;-82
2023/02/14 11:51:08;;;;;;;10.27;8.90;;;;;;;18.34;53.25;101526.72;4991531;28;20054;-82
2023/02/14 11:53:59;;;;;;;10.15;8.43;;;;;;;18.94;51.16;101523.91;4991447;28;20058;-82
2023/02/14 11:56:44;;;;;;;9.35;8.13;;;;;;;19.66;51.47;101514.78;4988577;28;20062;-82
2023/02/14 11:59:20;;;;;;;8.30;7.50;;;;;;;20.40;52.46;101516.91;4986916;28;20050;-82
2023/02/14 12:01:46;;;;;;;9.02;7.82;;;;;;;21.13;51.57;101505.50;4991388;28;20057;-82
2023/02/14 12:04:18;;;;;;;8.60;7.25;;;;;;;21.82;47.64;101490.56;4986926;28;20112;-82
2023/02/14 12:06:44;;;;;;;9.23;7.40;;;;;;;22.48;48.62;101482.78;4990474;28;20070;-82
2023/02/14 12:09:24;;;;;;;8.18;7.20;;;;;;;23.06;42.62;101481.69;4990492;28;20493;-82